This is the latest recevied weather packets stored in our database for station/object S54L-12. If no packets are shown the sender has not sent any weather packets the latest 10 day(s).
| Time | Temp. | Humidity | Pressure | Rain* | Wind** | Luminosity | Snow |
|---|---|---|---|---|---|---|---|
| 1777722333 | 21.67° C | 27% | 928.3 hPa | - | - | - | - |
| 1777721433 | 21.67° C | 27% | 928.5 hPa | - | - | - | - |
| 1777720533 | 21.67° C | 30% | 928.7 hPa | - | - | - | - |
| 1777719633 | 21.11° C | 26% | 928.9 hPa | - | - | - | - |
| 1777718733 | 21.67° C | 29% | 929 hPa | - | - | - | - |
| 1777717833 | 21.67° C | 28% | 929.1 hPa | - | - | - | - |
| 1777716933 | 21.11° C | 31% | 929.2 hPa | - | - | - | - |
| 1777716032 | 21.11° C | 29% | 929.5 hPa | - | - | - | - |
| 1777715132 | 20.56° C | 29% | 929.6 hPa | - | - | - | - |
| 1777714232 | 21.11° C | 27% | 929.7 hPa | - | - | - | - |
| 1777713332 | 22.78° C | 25% | 929.9 hPa | - | - | - | - |
| 1777712432 | 26.11° C | 22% | 930 hPa | - | - | - | - |
| 1777711531 | 28.89° C | 19% | 930 hPa | - | - | - | - |
| 1777710631 | 28.33° C | 20% | 930 hPa | - | - | - | - |
| 1777709731 | 28.89° C | 21% | 930 hPa | - | - | - | - |
| 1777708833 | 28.89° C | 21% | 930.2 hPa | - | - | - | - |
| 1777707933 | 28.89° C | 20% | 930.2 hPa | - | - | - | - |
| 1777707033 | 30° C | 18% | 930.3 hPa | - | - | - | - |
| 1777706133 | 29.44° C | 20% | 930.3 hPa | - | - | - | - |
| 1777705233 | 28.89° C | 19% | 930.2 hPa | - | - | - | - |
| 1777704333 | 26.67° C | 22% | 930.3 hPa | - | - | - | - |
| 1777703433 | 25° C | 24% | 930.4 hPa | - | - | - | - |
| 1777702533 | 25° C | 22% | 930.4 hPa | - | - | - | - |
| 1777701632 | 22.78° C | 29% | 930.4 hPa | - | - | - | - |
| 1777700732 | 16.11° C | 41% | 930.6 hPa | - | - | - | - |
* Rain since midnight (hover to see other rain measurements)
** Current wind speed in m/s (hover to see current wind gust speed)